Time;durP1;ratioP1;P1;durP2;ratioP2;P2;SDS_P1;SDS_P2;PMS_P1;PMS_P2;Temp;Humidity;BMP_temperature;BMP_pressure;BME280_temperature;BME280_humidity;BME280_pressure;Samples;Min_cycle;Max_cycle;Signal;HPM_P1;HPM_P2
2022/10/11 00:02:18;;;;;;;3.65;2.52;;;12.60;88.60;;;;;;1903923;75;20990;-58
2022/10/11 00:04:49;;;;;;;2.45;1.92;;;12.60;88.60;;;;;;1903845;75;21019;-57
2022/10/11 00:07:19;;;;;;;3.52;2.15;;;12.60;88.60;;;;;;1903834;75;21015;-58
2022/10/11 00:09:49;;;;;;;2.33;2.12;;;12.60;88.50;;;;;;1903785;75;21010;-58
2022/10/11 00:12:19;;;;;;;3.02;2.08;;;12.60;88.70;;;;;;1903774;75;21069;-58
2022/10/11 00:14:48;;;;;;;4.35;2.42;;;12.60;88.70;;;;;;1903764;75;21096;-57
2022/10/11 00:17:18;;;;;;;5.37;2.12;;;12.60;88.80;;;;;;1903780;75;21015;-58
2022/10/11 00:19:47;;;;;;;6.55;3.02;;;12.60;88.80;;;;;;1903880;75;20991;-58
2022/10/11 00:22:17;;;;;;;3.75;2.30;;;12.60;88.70;;;;;;1903837;75;21097;-57
2022/10/11 00:24:47;;;;;;;3.08;2.08;;;12.50;88.80;;;;;;1903869;75;21039;-58
2022/10/11 00:27:17;;;;;;;6.35;2.50;;;12.50;88.90;;;;;;1903922;75;21042;-57
2022/10/11 00:29:46;;;;;;;5.45;2.72;;;12.50;89.00;;;;;;1903960;75;21050;-57
2022/10/11 00:32:16;;;;;;;2.70;2.22;;;12.60;89.50;;;;;;1903821;75;21035;-58
2022/10/11 00:34:46;;;;;;;4.72;2.20;;;12.60;89.70;;;;;;1903810;75;21088;-58
2022/10/11 00:37:15;;;;;;;3.47;2.22;;;12.60;89.50;;;;;;1903810;75;21088;-58
2022/10/11 00:39:45;;;;;;;3.90;2.00;;;12.60;89.60;;;;;;1903976;75;21074;-58
2022/10/11 00:42:18;;;;;;;3.60;2.65;;;12.70;89.80;;;;;;1903496;75;21066;-58
2022/10/11 00:44:49;;;;;;;3.90;2.42;;;12.60;90.10;;;;;;1902724;75;21022;-58
2022/10/11 00:47:24;;;;;;;3.90;2.50;;;12.60;90.00;;;;;;1902675;75;21022;-58
2022/10/11 00:49:59;;;;;;;3.33;2.33;;;12.60;90.00;;;;;;1902766;75;21469;-58
2022/10/11 00:52:34;;;;;;;2.72;2.02;;;12.60;90.00;;;;;;1902659;75;21006;-58
2022/10/11 00:55:04;;;;;;;;;;;12.60;90.00;;;;;;1905512;75;21011;-58
2022/10/11 00:57:36;;;;;;;3.65;2.35;;;12.60;90.10;;;;;;1902520;75;20142;-58
2022/10/11 01:00:08;;;;;;;4.30;2.10;;;12.60;90.00;;;;;;1902601;75;21062;-58
2022/10/11 01:02:39;;;;;;;3.83;1.98;;;12.60;90.00;;;;;;1902551;75;20987;-58
2022/10/11 01:05:10;;;;;;;2.55;2.05;;;12.50;89.90;;;;;;1902636;75;21085;-58
2022/10/11 01:07:41;;;;;;;4.37;2.17;;;12.50;89.80;;;;;;1902587;75;21084;-58
2022/10/11 01:10:11;;;;;;;2.30;2.05;;;12.50;89.60;;;;;;1902544;75;21014;-58
2022/10/11 01:12:55;;;;;;;5.08;1.77;;;12.50;90.00;;;;;;1902538;75;21015;-58
2022/10/11 01:15:43;;;;;;;4.83;2.02;;;12.50;89.70;;;;;;1902679;75;20987;-58
2022/10/11 01:18:18;;;;;;;1.92;1.70;;;12.50;89.20;;;;;;1902689;75;21039;-58
2022/10/11 01:20:51;;;;;;;;;;;12.40;89.40;;;;;;1905282;75;21041;-58
2022/10/11 01:23:42;;;;;;;3.72;2.50;;;12.50;88.90;;;;;;1902670;75;20116;-58
2022/10/11 01:26:40;;;;;;;2.80;2.00;;;12.40;89.10;;;;;;1902542;75;21076;-57
2022/10/11 01:29:15;;;;;;;2.85;2.37;;;12.40;89.00;;;;;;1901501;75;21121;-58
2022/10/11 01:31:52;;;;;;;2.90;1.87;;;12.40;89.10;;;;;;1901012;75;21566;-58
2022/10/11 01:34:27;;;;;;;4.62;1.87;;;12.40;89.00;;;;;;1902349;75;21445;-57
2022/10/11 01:36:57;;;;;;;;;;;12.40;88.80;;;;;;1905488;75;21042;-58
2022/10/11 01:39:44;;;;;;;2.92;2.00;;;12.40;88.60;;;;;;1902540;75;20111;-58
2022/10/11 01:42:15;;;;;;;3.25;2.00;;;12.40;88.90;;;;;;1902618;75;21022;-58
2022/10/11 01:44:47;;;;;;;4.05;2.00;;;12.40;88.90;;;;;;1902587;75;21084;-58
2022/10/11 01:47:21;;;;;;;1.98;1.57;;;12.40;88.80;;;;;;1902660;75;21063;-58
2022/10/11 01:49:56;;;;;;;1.70;1.37;;;12.40;88.70;;;;;;1902816;75;21113;-58
2022/10/11 01:52:29;;;;;;;5.00;1.92;;;12.40;88.70;;;;;;1901376;75;21140;-58
2022/10/11 01:55:22;;;;;;;2.67;1.82;;;12.40;88.60;;;;;;1902538;75;21120;-58
2022/10/11 01:57:54;;;;;;;4.78;2.00;;;12.40;88.50;;;;;;1902368;75;21046;-58
2022/10/11 02:00:27;;;;;;;2.85;2.02;;;12.40;88.40;;;;;;1902656;75;21051;-58
2022/10/11 02:03:16;;;;;;;1.95;1.70;;;12.40;88.30;;;;;;1902576;75;21043;-58
2022/10/11 02:05:57;;;;;;;4.92;1.77;;;12.40;88.70;;;;;;1902667;75;21140;-58
2022/10/11 02:08:29;;;;;;;3.50;2.00;;;12.40;88.80;;;;;;1902663;75;21091;-58
2022/10/11 02:11:07;;;;;;;5.50;1.90;;;12.40;88.90;;;;;;1901972;75;20995;-58
2022/10/11 02:13:42;;;;;;;3.83;2.12;;;12.40;88.50;;;;;;1902726;75;21112;-58
2022/10/11 02:16:14;;;;;;;2.40;1.65;;;12.40;88.80;;;;;;1902673;75;21077;-58
2022/10/11 02:18:49;;;;;;;3.45;1.95;;;12.40;88.80;;;;;;1902668;75;21559;-58
2022/10/11 02:21:19;;;;;;;;;;;12.40;88.70;;;;;;1905472;75;21023;-57
2022/10/11 02:23:53;;;;;;;2.42;1.80;;;12.40;88.20;;;;;;1901792;75;20103;-58
2022/10/11 02:26:24;;;;;;;2.22;1.90;;;12.30;88.30;;;;;;1902788;75;21014;-58
2022/10/11 02:28:56;;;;;;;4.30;1.80;;;12.30;88.50;;;;;;1902567;75;21088;-58
2022/10/11 02:31:27;;;;;;;4.03;1.92;;;12.30;88.40;;;;;;1902490;75;21496;-58
2022/10/11 02:33:59;;;;;;;2.90;1.90;;;12.30;88.40;;;;;;1902632;75;20991;-57
2022/10/11 02:36:38;;;;;;;2.87;1.98;;;12.30;88.40;;;;;;1902493;75;21088;-58
2022/10/11 02:39:10;;;;;;;3.05;2.25;;;12.30;88.30;;;;;;1875412;75;21112;-58
2022/10/11 02:41:42;;;;;;;3.00;2.02;;;12.30;88.30;;;;;;1900808;75;21461;-58
2022/10/11 02:44:23;;;;;;;3.02;2.10;;;12.30;88.30;;;;;;1903281;75;21055;-58
2022/10/11 02:46:53;;;;;;;4.10;2.25;;;12.40;88.30;;;;;;1902988;75;21023;-58
2022/10/11 02:49:23;;;;;;;2.62;1.80;;;12.30;88.20;;;;;;1903773;75;21113;-58
2022/10/11 02:51:53;;;;;;;1.47;1.37;;;12.30;88.30;;;;;;1903809;75;21015;-58
2022/10/11 02:54:27;;;;;;;3.45;2.35;;;12.30;88.30;;;;;;1903846;75;21449;-58
2022/10/11 02:56:56;;;;;;;3.95;2.00;;;12.30;88.30;;;;;;1903705;75;21081;-58
2022/10/11 02:59:26;;;;;;;4.37;1.70;;;12.30;88.10;;;;;;1903861;75;21062;-57
2022/10/11 03:01:56;;;;;;;2.45;1.87;;;12.30;88.40;;;;;;1903768;75;21177;-57
2022/10/11 03:04:25;;;;;;;3.70;1.70;;;12.30;88.40;;;;;;1903918;75;21131;-58
2022/10/11 03:06:55;;;;;;;3.02;2.02;;;12.20;88.20;;;;;;1903709;75;21120;-58
2022/10/11 03:09:25;;;;;;;7.25;1.98;;;12.20;88.40;;;;;;1903791;75;20991;-57
2022/10/11 03:11:55;;;;;;;6.65;2.20;;;12.20;87.70;;;;;;1903744;75;21031;-58
2022/10/11 03:14:24;;;;;;;5.58;2.27;;;12.20;88.20;;;;;;1903857;75;21019;-58
2022/10/11 03:16:54;;;;;;;5.37;2.35;;;12.20;88.00;;;;;;1903755;75;21015;-57
2022/10/11 03:19:24;;;;;;;6.60;2.55;;;12.20;88.10;;;;;;1903693;75;20990;-58
2022/10/11 03:21:53;;;;;;;8.73;2.45;;;12.20;88.00;;;;;;1903743;75;21116;-58
2022/10/11 03:24:23;;;;;;;3.45;1.70;;;12.20;88.00;;;;;;1903782;75;21093;-58
2022/10/11 03:26:52;;;;;;;5.95;2.52;;;12.20;87.80;;;;;;1903715;75;21089;-58
2022/10/11 03:29:22;;;;;;;2.77;2.10;;;12.10;87.80;;;;;;1903803;75;21438;-58
2022/10/11 03:31:52;;;;;;;4.03;2.30;;;12.20;87.90;;;;;;1903687;75;21034;-58
2022/10/11 03:34:21;;;;;;;3.52;1.82;;;12.10;87.80;;;;;;1903701;75;21027;-58
2022/10/11 03:36:51;;;;;;;7.05;2.10;;;12.10;87.90;;;;;;1903825;75;21023;-58
2022/10/11 03:39:21;;;;;;;3.08;1.50;;;12.10;88.00;;;;;;1903917;75;21046;-58
2022/10/11 03:41:50;;;;;;;3.20;1.72;;;12.10;88.00;;;;;;1903830;75;20995;-58
2022/10/11 03:44:20;;;;;;;3.50;1.50;;;12.10;87.90;;;;;;1903726;75;21067;-58
2022/10/11 03:46:50;;;;;;;2.15;1.62;;;12.10;87.60;;;;;;1903834;75;21038;-58
2022/10/11 03:49:20;;;;;;;4.05;1.80;;;12.10;87.50;;;;;;1903942;75;21104;-58
2022/10/11 03:51:49;;;;;;;3.75;1.77;;;12.20;87.50;;;;;;1903889;75;21084;-58
2022/10/11 03:54:19;;;;;;;6.08;2.10;;;12.20;87.70;;;;;;1903927;75;21019;-58
2022/10/11 03:56:49;;;;;;;3.12;1.50;;;12.20;87.10;;;;;;1903804;75;21023;-58
2022/10/11 03:59:19;;;;;;;1.85;1.42;;;12.30;87.20;;;;;;1903871;75;21011;-58
2022/10/11 04:01:48;;;;;;;2.20;1.30;;;12.30;86.70;;;;;;1903845;75;21035;-58
2022/10/11 04:04:18;;;;;;;6.92;2.17;;;12.30;86.80;;;;;;1903833;75;21019;-58
2022/10/11 04:06:48;;;;;;;5.08;1.82;;;12.30;86.70;;;;;;1903824;75;21063;-58
2022/10/11 04:09:18;;;;;;;2.83;1.90;;;12.30;86.70;;;;;;1903803;75;21015;-58
2022/10/11 04:11:47;;;;;;;7.30;1.87;;;12.40;87.00;;;;;;1903825;75;21104;-58
2022/10/11 04:14:17;;;;;;;5.03;2.22;;;12.40;86.70;;;;;;1903897;75;21023;-58
2022/10/11 04:16:47;;;;;;;5.17;1.50;;;12.40;86.80;;;;;;1903792;75;21018;-58
2022/10/11 04:19:17;;;;;;;6.47;2.10;;;12.40;86.70;;;;;;1903935;75;21085;-58
2022/10/11 04:21:46;;;;;;;7.42;1.92;;;12.40;86.80;;;;;;1903915;75;21058;-58
2022/10/11 04:24:16;;;;;;;3.58;1.72;;;12.40;87.30;;;;;;1904009;75;21026;-58
2022/10/11 04:26:46;;;;;;;5.50;2.20;;;12.40;86.50;;;;;;1903875;75;21129;-58
2022/10/11 04:29:16;;;;;;;10.68;2.40;;;12.50;86.30;;;;;;1903942;75;21014;-58
2022/10/11 04:31:45;;;;;;;4.33;1.20;;;12.50;86.10;;;;;;1903924;75;21030;-58
2022/10/11 04:34:15;;;;;;;2.77;1.40;;;12.50;86.00;;;;;;1903968;75;21035;-57
2022/10/11 04:36:45;;;;;;;3.37;1.45;;;12.60;85.90;;;;;;1903871;75;21043;-58
2022/10/11 04:39:14;;;;;;;2.05;1.65;;;12.60;86.00;;;;;;1903889;75;21011;-58
2022/10/11 04:41:44;;;;;;;5.72;1.60;;;12.60;85.90;;;;;;1903993;75;21125;-58
2022/10/11 04:44:14;;;;;;;2.42;1.30;;;12.70;86.00;;;;;;1903719;75;21019;-58
2022/10/11 04:46:43;;;;;;;3.87;1.60;;;12.80;86.00;;;;;;1902662;75;21140;-58
2022/10/11 04:49:13;;;;;;;6.35;1.72;;;12.80;86.10;;;;;;1902667;75;21050;-58
2022/10/11 04:51:43;;;;;;;2.47;1.45;;;12.80;86.00;;;;;;1902572;75;21077;-58
2022/10/11 04:54:12;;;;;;;3.42;1.57;;;12.90;85.90;;;;;;1902542;75;20991;-57
2022/10/11 04:56:42;;;;;;;3.37;1.72;;;12.90;85.80;;;;;;1902608;75;21027;-58
2022/10/11 04:59:12;;;;;;;8.50;1.82;;;12.90;85.80;;;;;;1902567;75;21079;-57
2022/10/11 05:01:42;;;;;;;4.45;1.55;;;12.90;85.60;;;;;;1902468;75;21047;-57
2022/10/11 05:04:13;;;;;;;7.90;2.15;;;13.00;85.20;;;;;;1902512;75;21084;-58
2022/10/11 05:06:43;;;;;;;4.47;1.70;;;13.00;85.40;;;;;;1902548;75;21081;-58
2022/10/11 05:09:12;;;;;;;1.80;1.30;;;13.00;85.80;;;;;;1902650;75;21014;-58
2022/10/11 05:11:42;;;;;;;3.80;1.42;;;12.90;85.50;;;;;;1902630;75;21051;-58
2022/10/11 05:14:11;;;;;;;1.60;1.25;;;12.90;85.30;;;;;;1902490;75;21074;-58
2022/10/11 05:16:41;;;;;;;2.98;1.30;;;12.90;85.50;;;;;;1902473;75;21027;-58
2022/10/11 05:19:11;;;;;;;6.67;1.60;;;12.90;85.60;;;;;;1902566;75;21077;-58
2022/10/11 05:21:41;;;;;;;2.08;1.65;;;12.90;85.80;;;;;;1902602;75;21015;-58
2022/10/11 05:24:11;;;;;;;3.47;1.70;;;12.90;86.70;;;;;;1902514;75;21088;-57
2022/10/11 05:26:40;;;;;;;2.20;1.60;;;12.90;86.50;;;;;;1902651;75;21011;-57
2022/10/11 05:29:10;;;;;;;3.47;1.35;;;13.00;86.60;;;;;;1902615;75;21085;-58
2022/10/11 05:31:39;;;;;;;4.62;1.62;;;13.10;86.60;;;;;;1902478;75;21108;-58
2022/10/11 05:34:09;;;;;;;3.70;1.85;;;13.10;86.70;;;;;;1902440;75;21023;-58
2022/10/11 05:36:39;;;;;;;2.10;1.57;;;13.10;86.10;;;;;;1902463;75;21109;-58
2022/10/11 05:39:08;;;;;;;14.40;13.15;;;13.20;85.70;;;;;;1902576;75;20987;-57
2022/10/11 05:41:38;;;;;;;2.30;1.62;;;13.20;84.90;;;;;;1902607;75;21015;-58
2022/10/11 05:44:08;;;;;;;5.53;1.30;;;13.30;84.50;;;;;;1902601;75;21132;-57
2022/10/11 05:46:38;;;;;;;5.60;1.60;;;13.30;83.90;;;;;;1902349;75;21080;-58
2022/10/11 05:49:08;;;;;;;7.45;2.47;;;13.30;83.00;;;;;;1902624;75;21018;-58
2022/10/11 05:51:38;;;;;;;2.75;1.42;;;13.40;82.50;;;;;;1902390;75;21101;-58
2022/10/11 05:54:08;;;;;;;1.65;1.12;;;13.50;82.70;;;;;;1902485;75;21014;-58
2022/10/11 05:56:37;;;;;;;6.10;1.98;;;13.50;82.10;;;;;;1902544;75;21067;-58
2022/10/11 05:59:07;;;;;;;2.77;1.10;;;13.60;81.80;;;;;;1902654;75;21100;-58
2022/10/11 06:01:37;;;;;;;3.95;1.27;;;13.60;81.40;;;;;;1902323;75;21151;-58
2022/10/11 06:04:07;;;;;;;6.05;1.57;;;13.70;81.00;;;;;;1902434;75;21131;-58
2022/10/11 06:06:36;;;;;;;2.25;1.50;;;13.70;80.80;;;;;;1902456;75;21062;-58
2022/10/11 06:09:06;;;;;;;3.90;1.10;;;13.70;80.70;;;;;;1902597;75;21089;-58
2022/10/11 06:11:36;;;;;;;3.52;1.30;;;13.80;80.30;;;;;;1902380;75;21035;-58
2022/10/11 06:14:05;;;;;;;5.33;1.47;;;13.80;78.90;;;;;;1902401;75;21093;-58
2022/10/11 06:16:35;;;;;;;2.05;1.07;;;13.90;80.20;;;;;;1902500;75;21371;-58
2022/10/11 06:19:05;;;;;;;3.47;1.02;;;13.90;79.60;;;;;;1902502;75;21080;-58
2022/10/11 06:21:35;;;;;;;3.37;1.47;;;14.00;79.10;;;;;;1902624;75;21011;-58
2022/10/11 06:24:05;;;;;;;2.45;1.25;;;14.00;79.00;;;;;;1902495;75;21019;-58
2022/10/11 06:26:35;;;;;;;2.37;1.35;;;14.00;78.40;;;;;;1902501;75;21015;-58
2022/10/11 06:29:04;;;;;;;3.58;1.50;;;14.10;78.90;;;;;;1902486;75;21118;-58
2022/10/11 06:31:34;;;;;;;3.67;1.57;;;14.20;78.70;;;;;;1902504;75;21019;-58
2022/10/11 06:34:03;;;;;;;5.08;1.17;;;14.20;78.50;;;;;;1902537;75;21015;-58
2022/10/11 06:36:33;;;;;;;3.20;1.20;;;14.30;77.60;;;;;;1902508;75;21104;-58
2022/10/11 06:39:03;;;;;;;1.62;1.52;;;14.40;77.90;;;;;;1902779;75;21042;-58
2022/10/11 06:41:33;;;;;;;3.75;1.60;;;14.50;77.70;;;;;;1902559;75;21011;-58
2022/10/11 06:44:02;;;;;;;3.37;1.32;;;14.50;77.70;;;;;;1902503;75;21108;-58
2022/10/11 06:46:32;;;;;;;2.67;1.07;;;14.50;77.10;;;;;;1902434;75;21145;-58
2022/10/11 06:49:02;;;;;;;4.65;1.22;;;14.50;76.40;;;;;;1902546;75;21058;-58
2022/10/11 06:51:34;;;;;;;3.05;1.30;;;14.40;77.00;;;;;;1902470;75;21007;-58
2022/10/11 06:54:04;;;;;;;5.47;1.60;;;14.30;77.50;;;;;;1902596;75;21019;-58
2022/10/11 06:56:33;;;;;;;4.75;1.55;;;14.30;77.90;;;;;;1902441;75;20987;-58
2022/10/11 06:59:03;;;;;;;2.10;1.00;;;14.30;78.00;;;;;;1902595;75;20991;-58
2022/10/11 07:01:32;;;;;;;3.83;1.67;;;14.40;77.60;;;;;;1902543;75;21015;-58
2022/10/11 07:04:02;;;;;;;3.98;1.45;;;14.50;77.70;;;;;;1902586;75;21047;-58
2022/10/11 07:06:33;;;;;;;5.50;1.30;;;14.60;77.70;;;;;;1902426;75;20991;-58
2022/10/11 07:09:03;;;;;;;2.02;1.15;;;14.70;76.70;;;;;;1902586;75;21523;-58
2022/10/11 07:11:33;;;;;;;3.55;1.55;;;14.90;76.10;;;;;;1902549;75;21088;-58
2022/10/11 07:14:06;;;;;;;2.02;1.30;;;15.00;76.10;;;;;;1902470;75;20991;-58
2022/10/11 07:16:36;;;;;;;4.85;1.75;;;15.00;75.80;;;;;;1902413;75;21038;-58
2022/10/11 07:19:07;;;;;;;1.47;1.37;;;14.90;75.10;;;;;;1902546;75;21015;-58
2022/10/11 07:21:36;;;;;;;1.82;1.22;;;14.80;74.50;;;;;;1902630;75;21063;-58
2022/10/11 07:24:06;;;;;;;4.62;1.82;;;14.70;75.10;;;;;;1902603;75;21019;-58
2022/10/11 07:26:36;;;;;;;2.72;1.27;;;14.60;75.50;;;;;;1902502;75;20991;-58
2022/10/11 07:29:07;;;;;;;2.17;1.37;;;14.60;74.40;;;;;;1902582;75;21089;-58
2022/10/11 07:31:39;;;;;;;4.35;1.70;;;14.50;75.30;;;;;;1902516;75;21088;-58
2022/10/11 07:34:09;;;;;;;3.25;1.47;;;14.40;76.00;;;;;;1902601;75;21066;-58
2022/10/11 07:36:39;;;;;;;3.10;1.35;;;14.40;76.00;;;;;;1902409;75;21136;-58
2022/10/11 07:39:09;;;;;;;1.55;1.45;;;14.50;74.90;;;;;;1902541;75;21066;-58
2022/10/11 07:41:38;;;;;;;3.25;1.62;;;14.60;74.10;;;;;;1902546;75;21079;-58
2022/10/11 07:44:08;;;;;;;2.90;1.00;;;14.70;74.40;;;;;;1902452;75;21046;-58
2022/10/11 07:46:38;;;;;;;4.42;1.40;;;14.80;74.40;;;;;;1905501;75;21133;-58
2022/10/11 07:49:08;;;;;;;1.27;1.10;;;15.00;74.40;;;;;;1912403;75;21006;-58
2022/10/11 07:51:37;;;;;;;1.70;1.27;;;15.10;74.10;;;;;;1912214;75;21026;-58
2022/10/11 07:54:07;;;;;;;5.30;1.90;;;15.30;72.70;;;;;;1912437;75;21046;-58
2022/10/11 07:56:38;;;;;;;1.10;0.93;;;15.40;73.30;;;;;;1912297;75;21116;-57
2022/10/11 07:59:09;;;;;;;4.40;1.42;;;15.50;71.70;;;;;;1912353;75;21064;-58
2022/10/11 08:01:39;;;;;;;4.03;1.20;;;15.60;72.90;;;;;;1912316;75;21086;-57
2022/10/11 08:04:09;;;;;;;0.60;0.57;;;15.70;72.90;;;;;;1912308;75;21062;-58
2022/10/11 08:06:38;;;;;;;1.12;0.90;;;15.80;70.80;;;;;;1912318;75;21034;-58
2022/10/11 08:09:08;;;;;;;4.45;1.62;;;15.90;70.00;;;;;;1912384;75;21061;-58
2022/10/11 08:11:39;;;;;;;2.27;1.20;;;15.90;70.30;;;;;;1912396;75;21069;-58
2022/10/11 08:14:10;;;;;;;2.50;1.27;;;15.90;69.70;;;;;;1912262;75;21073;-58
2022/10/11 08:16:40;;;;;;;1.32;0.82;;;15.80;69.60;;;;;;1912335;75;21050;-58
2022/10/11 08:19:11;;;;;;;1.25;1.10;;;15.80;69.50;;;;;;1912265;75;21022;-58
2022/10/11 08:21:41;;;;;;;1.45;0.90;;;15.70;69.40;;;;;;1912242;75;21042;-58
2022/10/11 08:24:19;;;;;;;2.35;1.20;;;15.60;68.50;;;;;;1912248;74;21220;-57
2022/10/11 08:26:47;;;;;;;3.15;1.45;;;15.50;70.00;;;;;;1911859;74;21062;-58
2022/10/11 08:29:16;;;;;;;2.58;0.70;;;15.50;71.00;;;;;;1911938;75;20995;-58
2022/10/11 08:31:46;;;;;;;0.72;0.60;;;15.60;70.90;;;;;;1911635;75;21030;-57
2022/10/11 08:34:16;;;;;;;2.22;0.72;;;15.60;69.10;;;;;;1911645;75;21112;-58
2022/10/11 08:36:47;;;;;;;4.53;1.30;;;15.60;69.50;;;;;;1911604;75;21010;-58
2022/10/11 08:39:17;;;;;;;4.65;1.17;;;15.70;70.20;;;;;;1911924;75;21034;-58
2022/10/11 08:41:55;;;;;;;3.10;0.95;;;15.70;70.70;;;;;;1911903;75;21014;-58
2022/10/11 08:44:27;;;;;;;1.12;0.80;;;15.80;70.30;;;;;;1910703;75;21153;-58
2022/10/11 08:47:05;;;;;;;1.67;1.37;;;15.80;69.40;;;;;;1909133;75;21062;-58
2022/10/11 08:49:35;;;;;;;1.42;1.00;;;15.80;69.80;;;;;;1899218;75;21026;-58
2022/10/11 08:52:07;;;;;;;4.45;1.30;;;15.90;69.30;;;;;;1902650;75;20991;-58
2022/10/11 08:54:48;;;;;;;0.95;0.68;;;16.00;69.80;;;;;;1902233;75;21046;-58
2022/10/11 08:57:23;;;;;;;5.08;1.65;;;16.00;68.90;;;;;;1902651;75;21102;-58
2022/10/11 08:59:55;;;;;;;2.40;1.25;;;16.00;69.40;;;;;;1902721;75;21151;-58
2022/10/11 09:02:27;;;;;;;2.85;1.32;;;16.10;68.80;;;;;;1902786;75;21026;-58
2022/10/11 09:04:57;;;;;;;3.15;1.92;;;16.20;69.50;;;;;;1882847;75;21093;-58
2022/10/11 09:07:41;;;;;;;3.45;1.15;;;16.20;68.10;;;;;;1902656;75;21010;-58
2022/10/11 09:10:16;;;;;;;1.40;0.90;;;16.30;68.30;;;;;;1902552;75;21039;-58
2022/10/11 09:12:48;;;;;;;5.35;0.90;;;16.30;67.40;;;;;;1896431;75;21147;-58
2022/10/11 09:15:20;;;;;;;3.65;1.45;;;16.30;67.20;;;;;;1901973;75;21168;-58
2022/10/11 09:18:12;;;;;;;3.75;1.40;;;16.30;67.50;;;;;;1902660;75;21092;-58
2022/10/11 09:20:50;;;;;;;1.57;0.93;;;16.30;67.80;;;;;;1902261;75;21453;-58
2022/10/11 09:23:35;;;;;;;2.10;1.10;;;16.30;67.80;;;;;;1902777;75;21023;-58
2022/10/11 09:26:22;;;;;;;2.17;1.30;;;16.30;67.40;;;;;;1902672;75;21113;-59
2022/10/11 09:29:09;;;;;;;1.77;0.70;;;16.30;66.50;;;;;;1902478;75;21034;-58
2022/10/11 11:54:38;;;;;;;3.17;1.17;;;16.80;66.40;;;;;;1958360;72;25126;-64
2022/10/11 11:57:25;;;;;;;5.83;1.52;;;16.80;67.30;;;;;;1917620;75;21039;-63
2022/10/11 11:59:57;;;;;;;1.05;0.93;;;16.80;67.40;;;;;;1917647;74;21015;-58
2022/10/11 12:02:41;;;;;;;1.32;0.90;;;16.90;65.20;;;;;;1904922;75;21076;-59
2022/10/11 12:05:14;;;;;;;3.95;0.93;;;16.90;65.80;;;;;;1918663;75;21093;-59
2022/10/11 12:08:02;;;;;;;3.20;1.42;;;16.90;65.30;;;;;;1918443;75;21006;-59
2022/10/11 12:10:40;;;;;;;5.10;1.00;;;16.90;65.70;;;;;;1918335;75;21453;-60
2022/10/11 12:13:18;;;;;;;2.75;1.20;;;17.00;65.50;;;;;;1916413;74;21477;-60
2022/10/11 12:16:11;;;;;;;4.67;0.90;;;17.00;65.70;;;;;;1918474;75;21134;-60
2022/10/11 12:18:55;;;;;;;3.33;0.98;;;17.00;64.80;;;;;;1918503;75;21011;-59
2022/10/11 12:21:39;;;;;;;2.50;1.02;;;17.00;64.90;;;;;;1918137;73;21069;-60
2022/10/11 12:24:20;;;;;;;4.90;1.20;;;17.00;64.40;;;;;;1918525;75;21047;-60
2022/10/11 12:26:52;;;;;;;5.35;1.07;;;17.00;64.70;;;;;;1918453;75;21011;-60
2022/10/11 12:29:27;;;;;;;1.80;1.05;;;17.00;62.90;;;;;;1912372;75;21027;-59
2022/10/11 12:32:02;;;;;;;1.95;1.02;;;17.00;63.20;;;;;;1916327;74;21046;-59
2022/10/11 12:34:46;;;;;;;2.90;1.05;;;17.00;63.50;;;;;;1918434;75;21019;-59
2022/10/11 12:37:24;;;;;;;2.65;1.12;;;16.90;64.20;;;;;;1918506;75;21445;-59
2022/10/11 12:39:57;;;;;;;0.88;0.70;;;16.90;64.00;;;;;;1918492;75;21015;-60
2022/10/11 12:42:29;;;;;;;2.50;1.40;;;16.90;64.60;;;;;;1918456;74;21495;-60
2022/10/11 12:45:20;;;;;;;2.35;0.95;;;16.90;64.60;;;;;;1918067;74;21093;-59
2022/10/11 12:48:07;;;;;;;1.10;1.00;;;17.00;64.30;;;;;;1918553;75;21015;-59
2022/10/11 12:50:57;;;;;;;1.22;0.98;;;16.90;63.30;;;;;;1917952;74;21080;-60
2022/10/11 12:53:35;;;;;;;0.60;0.60;;;16.90;62.20;;;;;;1913558;74;21105;-60
2022/10/11 12:56:14;;;;;;;1.95;0.65;;;16.80;62.20;;;;;;1851098;74;21032;-60
2022/10/11 12:58:45;;;;;;;1.22;1.00;;;16.80;61.70;;;;;;1904891;75;21094;-58
2022/10/11 13:01:21;;;;;;;3.70;0.90;;;16.80;62.70;;;;;;1906153;75;21085;-58
2022/10/11 13:03:53;;;;;;;6.30;1.72;;;16.80;62.80;;;;;;1905561;74;21136;-58
2022/10/11 13:06:25;;;;;;;0.55;0.53;;;16.80;63.10;;;;;;1905246;75;21047;-58
2022/10/11 13:09:03;;;;;;;2.22;0.80;;;16.80;62.70;;;;;;1905274;75;21077;-58
2022/10/11 13:11:39;;;;;;;2.22;1.20;;;16.80;62.90;;;;;;1904377;74;21426;-58
2022/10/11 13:14:16;;;;;;;0.82;0.78;;;16.70;62.90;;;;;;1905413;75;21526;-57
2022/10/11 13:16:58;;;;;;;2.17;1.10;;;16.80;63.00;;;;;;1904937;74;21035;-57
2022/10/11 13:19:29;;;;;;;0.93;0.82;;;16.80;63.40;;;;;;1905360;75;21027;-59
2022/10/11 13:22:01;;;;;;;4.17;1.25;;;16.70;63.00;;;;;;1905270;75;21387;-59
2022/10/11 13:24:36;;;;;;;3.65;1.22;;;16.60;63.20;;;;;;1905311;75;21023;-59
2022/10/11 13:27:06;;;;;;;1.25;0.78;;;16.60;63.40;;;;;;1905603;75;21003;-59
2022/10/11 13:29:40;;;;;;;9.13;1.25;;;16.60;63.30;;;;;;1905289;75;21073;-59
2022/10/11 13:32:16;;;;;;;1.37;1.02;;;16.50;62.80;;;;;;1905451;75;21007;-60
2022/10/11 13:34:48;;;;;;;2.42;1.00;;;16.50;62.90;;;;;;1905179;74;20987;-60
2022/10/11 13:37:20;;;;;;;2.02;0.82;;;16.50;63.20;;;;;;1905346;75;21024;-60
2022/10/11 13:39:52;;;;;;;2.33;0.98;;;16.50;63.80;;;;;;1905383;75;20991;-60
2022/10/11 13:42:27;;;;;;;1.27;0.88;;;16.50;64.00;;;;;;1905393;75;21011;-60
2022/10/11 13:44:57;;;;;;;5.60;1.00;;;16.50;63.40;;;;;;1904115;74;21011;-60
2022/10/11 13:48:00;;;;;;;1.10;0.80;;;16.50;63.50;;;;;;1905416;75;21069;-60
2022/10/11 13:50:33;;;;;;;2.40;0.90;;;16.40;63.60;;;;;;1905385;75;21120;-58
2022/10/11 13:53:10;;;;;;;1.95;0.90;;;16.40;64.00;;;;;;1905268;74;21077;-59
2022/10/11 13:55:52;;;;;;;3.67;1.37;;;16.40;64.40;;;;;;1905274;75;21047;-58
2022/10/11 13:58:39;;;;;;;4.60;1.57;;;16.30;64.70;;;;;;1904788;74;21081;-58
2022/10/11 14:01:21;;;;;;;1.27;0.80;;;16.30;65.10;;;;;;1904138;74;21042;-58
2022/10/11 14:03:58;;;;;;;4.15;1.37;;;16.30;64.60;;;;;;1905237;74;21051;-58
2022/10/11 14:06:46;;;;;;;1.65;1.10;;;16.30;65.10;;;;;;1905404;75;21093;-59
2022/10/11 14:09:27;;;;;;;1.47;0.93;;;16.20;65.10;;;;;;1905262;74;20979;-58
2022/10/11 14:11:57;;;;;;;6.92;2.00;;;16.20;65.40;;;;;;1905376;75;21485;-58
2022/10/11 14:14:38;;;;;;;9.38;2.42;;;16.20;65.80;;;;;;1903216;75;20996;-59
2022/10/11 14:17:13;;;;;;;11.53;2.83;;;16.10;66.10;;;;;;1904234;74;21489;-59
2022/10/11 14:19:44;;;;;;;3.35;1.60;;;16.10;66.90;;;;;;1904976;74;21031;-59
2022/10/11 14:22:15;;;;;;;6.83;3.17;;;16.10;66.50;;;;;;1905391;75;21040;-58
2022/10/11 14:24:48;;;;;;;7.03;2.25;;;16.00;66.50;;;;;;1905354;75;21008;-59
2022/10/11 14:27:23;;;;;;;4.30;1.95;;;16.00;66.70;;;;;;1905417;75;21093;-58
2022/10/11 14:29:52;;;;;;;6.03;1.30;;;15.90;67.00;;;;;;1905429;75;21019;-59
2022/10/11 14:32:28;;;;;;;7.55;1.77;;;15.80;67.10;;;;;;1905242;74;21253;-58
2022/10/11 14:34:57;;;;;;;5.28;1.57;;;15.80;67.30;;;;;;1905031;74;21056;-58
2022/10/11 14:37:27;;;;;;;3.60;1.90;;;15.70;67.60;;;;;;1905262;75;20983;-59
2022/10/11 14:39:56;;;;;;;9.35;1.85;;;15.70;68.10;;;;;;1905232;75;21003;-59
2022/10/11 14:42:25;;;;;;;6.75;2.10;;;15.60;68.10;;;;;;1905363;75;21027;-58
2022/10/11 14:44:54;;;;;;;10.95;2.90;;;15.60;68.60;;;;;;1905115;75;21047;-58
2022/10/11 14:47:23;;;;;;;9.35;3.08;;;15.50;69.00;;;;;;1905242;75;21454;-59
2022/10/11 14:49:52;;;;;;;18.40;3.40;;;15.50;69.30;;;;;;1905136;75;21081;-59
2022/10/11 14:52:21;;;;;;;12.82;3.60;;;15.50;69.80;;;;;;1905329;75;21082;-58
2022/10/11 14:54:51;;;;;;;8.55;2.50;;;15.40;70.20;;;;;;1915441;74;21116;-58
2022/10/11 14:57:21;;;;;;;4.92;2.17;;;15.40;70.40;;;;;;1924628;74;21042;-59
2022/10/11 14:59:50;;;;;;;13.58;2.70;;;15.30;70.50;;;;;;1924704;74;20999;-59
2022/10/11 15:02:19;;;;;;;4.33;2.08;;;15.20;70.80;;;;;;1924726;74;21069;-58
2022/10/11 15:04:49;;;;;;;8.43;1.60;;;15.20;71.30;;;;;;1924722;74;21136;-58
2022/10/11 15:07:18;;;;;;;3.58;1.50;;;15.10;71.80;;;;;;1924610;74;21038;-58
2022/10/11 15:09:47;;;;;;;5.58;2.00;;;15.00;72.00;;;;;;1924565;74;21003;-58
2022/10/11 15:12:16;;;;;;;5.90;2.25;;;15.00;72.30;;;;;;1924521;74;21452;-58
2022/10/11 15:14:45;;;;;;;8.53;2.60;;;15.00;72.90;;;;;;1924539;74;21085;-58
2022/10/11 15:17:15;;;;;;;8.70;2.40;;;15.00;73.10;;;;;;1924702;74;21010;-58
2022/10/11 15:19:44;;;;;;;7.15;2.40;;;14.90;73.20;;;;;;1924701;74;21088;-58
2022/10/11 15:22:14;;;;;;;13.05;4.15;;;14.90;73.50;;;;;;1924646;74;21027;-59
2022/10/11 15:24:43;;;;;;;6.00;2.20;;;14.90;73.60;;;;;;1924623;74;21027;-58
2022/10/11 15:27:15;;;;;;;2.83;1.50;;;14.90;73.70;;;;;;1924800;74;21084;-59
2022/10/11 15:29:43;;;;;;;3.12;1.20;;;14.80;73.80;;;;;;1924433;74;21026;-59
2022/10/11 15:32:12;;;;;;;5.22;2.15;;;14.80;74.00;;;;;;1924689;74;21043;-59
2022/10/11 15:34:41;;;;;;;9.88;2.60;;;14.80;74.40;;;;;;1924512;74;21018;-58
2022/10/11 15:37:11;;;;;;;5.50;2.00;;;14.70;74.30;;;;;;1924715;74;21025;-58
2022/10/11 15:39:40;;;;;;;3.10;1.82;;;14.70;74.60;;;;;;1924575;74;21586;-58